sensor_id;sensor_type;location;lat;lon;timestamp;temperature;humidity
23495;DHT22;26107;50.832;2.950;2022-08-30T00:07:17;19.70;99.90
23495;DHT22;26107;50.832;2.950;2022-08-30T00:22:17;19.40;99.90
23495;DHT22;26107;50.832;2.950;2022-08-30T00:37:18;19.40;99.90
23495;DHT22;26107;50.832;2.950;2022-08-30T00:52:18;18.10;99.90
23495;DHT22;26107;50.832;2.950;2022-08-30T01:07:20;18.30;99.90
23495;DHT22;26107;50.832;2.950;2022-08-30T01:37:26;18.50;99.90
23495;DHT22;26107;50.832;2.950;2022-08-30T01:52:26;18.60;99.90
23495;DHT22;26107;50.832;2.950;2022-08-30T02:07:27;18.20;99.90
23495;DHT22;26107;50.832;2.950;2022-08-30T02:22:27;18.00;99.90
23495;DHT22;26107;50.832;2.950;2022-08-30T02:37:28;18.00;99.90
23495;DHT22;26107;50.832;2.950;2022-08-30T02:52:29;17.90;99.90
23495;DHT22;26107;50.832;2.950;2022-08-30T03:07:29;17.80;99.90
23495;DHT22;26107;50.832;2.950;2022-08-30T03:22:30;18.10;99.90
23495;DHT22;26107;50.832;2.950;2022-08-30T03:37:31;18.20;99.90
23495;DHT22;26107;50.832;2.950;2022-08-30T03:52:31;17.80;99.90
23495;DHT22;26107;50.832;2.950;2022-08-30T04:07:32;17.80;99.90
23495;DHT22;26107;50.832;2.950;2022-08-30T04:22:33;17.60;99.90
23495;DHT22;26107;50.832;2.950;2022-08-30T04:37:33;17.60;99.90
23495;DHT22;26107;50.832;2.950;2022-08-30T04:52:34;17.40;99.90
23495;DHT22;26107;50.832;2.950;2022-08-30T05:07:34;17.10;99.90
23495;DHT22;26107;50.832;2.950;2022-08-30T05:22:35;17.00;99.90
23495;DHT22;26107;50.832;2.950;2022-08-30T05:37:36;17.40;99.90
23495;DHT22;26107;50.832;2.950;2022-08-30T05:52:37;17.60;99.90
23495;DHT22;26107;50.832;2.950;2022-08-30T06:07:38;17.40;99.90
23495;DHT22;26107;50.832;2.950;2022-08-30T06:22:39;17.50;99.90
23495;DHT22;26107;50.832;2.950;2022-08-30T06:37:40;17.60;99.90
23495;DHT22;26107;50.832;2.950;2022-08-30T06:52:43;18.20;99.90
23495;DHT22;26107;50.832;2.950;2022-08-30T07:07:43;18.50;99.90
23495;DHT22;26107;50.832;2.950;2022-08-30T07:22:44;18.60;99.90
23495;DHT22;26107;50.832;2.950;2022-08-30T07:37:45;18.80;99.90
23495;DHT22;26107;50.832;2.950;2022-08-30T07:52:45;19.00;99.90
23495;DHT22;26107;50.832;2.950;2022-08-30T08:07:46;19.30;99.90
23495;DHT22;26107;50.832;2.950;2022-08-30T08:22:46;19.60;99.90
23495;DHT22;26107;50.832;2.950;2022-08-30T08:37:47;20.10;99.90
23495;DHT22;26107;50.832;2.950;2022-08-30T08:52:49;20.60;99.90
23495;DHT22;26107;50.832;2.950;2022-08-30T09:08:11;21.00;99.90
23495;DHT22;26107;50.832;2.950;2022-08-30T09:23:24;21.60;99.90
23495;DHT22;26107;50.832;2.950;2022-08-30T09:38:30;22.00;99.90
23495;DHT22;26107;50.832;2.950;2022-08-30T09:53:32;22.20;99.90
23495;DHT22;26107;50.832;2.950;2022-08-30T10:08:49;22.90;99.90
23495;DHT22;26107;50.832;2.950;2022-08-30T10:23:59;23.20;99.90
23495;DHT22;26107;50.832;2.950;2022-08-30T10:39:00;23.90;99.90
23495;DHT22;26107;50.832;2.950;2022-08-30T10:54:08;24.00;99.90
23495;DHT22;26107;50.832;2.950;2022-08-30T11:09:47;24.50;99.90
23495;DHT22;26107;50.832;2.950;2022-08-30T11:39:59;25.20;98.40
23495;DHT22;26107;50.832;2.950;2022-08-30T12:10:21;25.60;96.60
23495;DHT22;26107;50.832;2.950;2022-08-30T12:25:24;25.70;96.20
23495;DHT22;26107;50.832;2.950;2022-08-30T12:40:29;26.50;95.50
23495;DHT22;26107;50.832;2.950;2022-08-30T12:55:35;26.10;95.60
23495;DHT22;26107;50.832;2.950;2022-08-30T13:10:36;26.20;95.50
23495;DHT22;26107;50.832;2.950;2022-08-30T13:25:37;26.40;95.40
23495;DHT22;26107;50.832;2.950;2022-08-30T13:40:38;26.20;96.00
23495;DHT22;26107;50.832;2.950;2022-08-30T13:55:38;26.60;95.30
23495;DHT22;26107;50.832;2.950;2022-08-30T14:10:39;26.70;94.80
23495;DHT22;26107;50.832;2.950;2022-08-30T14:25:40;26.70;94.90
23495;DHT22;26107;50.832;2.950;2022-08-30T14:40:41;26.10;95.80
23495;DHT22;26107;50.832;2.950;2022-08-30T14:55:41;26.00;95.00
23495;DHT22;26107;50.832;2.950;2022-08-30T15:10:42;26.40;94.30
23495;DHT22;26107;50.832;2.950;2022-08-30T15:25:42;25.10;95.30
23495;DHT22;26107;50.832;2.950;2022-08-30T15:40:44;25.40;95.20
23495;DHT22;26107;50.832;2.950;2022-08-30T15:55:44;26.20;94.10
23495;DHT22;26107;50.832;2.950;2022-08-30T16:10:45;26.30;93.40
23495;DHT22;26107;50.832;2.950;2022-08-30T16:25:46;26.60;92.40
23495;DHT22;26107;50.832;2.950;2022-08-30T16:40:46;26.00;92.00
23495;DHT22;26107;50.832;2.950;2022-08-30T16:55:47;26.50;91.70
23495;DHT22;26107;50.832;2.950;2022-08-30T17:10:47;31.60;83.50
23495;DHT22;26107;50.832;2.950;2022-08-30T17:25:48;29.00;89.40
23495;DHT22;26107;50.832;2.950;2022-08-30T17:40:48;28.00;90.40
23495;DHT22;26107;50.832;2.950;2022-08-30T17:55:49;25.50;93.10
23495;DHT22;26107;50.832;2.950;2022-08-30T18:10:49;24.90;93.20
23495;DHT22;26107;50.832;2.950;2022-08-30T18:25:54;24.10;94.30
23495;DHT22;26107;50.832;2.950;2022-08-30T18:40:59;23.50;95.40
23495;DHT22;26107;50.832;2.950;2022-08-30T18:55:59;23.30;95.40
23495;DHT22;26107;50.832;2.950;2022-08-30T19:11:00;22.80;95.70
23495;DHT22;26107;50.832;2.950;2022-08-30T19:26:01;22.60;96.60
23495;DHT22;26107;50.832;2.950;2022-08-30T19:41:02;22.40;97.70
23495;DHT22;26107;50.832;2.950;2022-08-30T19:56:03;22.10;98.70
23495;DHT22;26107;50.832;2.950;2022-08-30T20:11:04;22.00;99.10
23495;DHT22;26107;50.832;2.950;2022-08-30T20:26:04;21.80;99.50
23495;DHT22;26107;50.832;2.950;2022-08-30T20:41:09;21.60;99.90
23495;DHT22;26107;50.832;2.950;2022-08-30T20:56:10;21.40;99.90
23495;DHT22;26107;50.832;2.950;2022-08-30T21:11:11;21.40;99.90
23495;DHT22;26107;50.832;2.950;2022-08-30T21:26:12;21.30;99.90
23495;DHT22;26107;50.832;2.950;2022-08-30T21:41:12;21.10;99.90
23495;DHT22;26107;50.832;2.950;2022-08-30T21:56:15;21.00;99.90
23495;DHT22;26107;50.832;2.950;2022-08-30T22:11:17;20.90;99.90
23495;DHT22;26107;50.832;2.950;2022-08-30T22:26:19;20.80;99.90
23495;DHT22;26107;50.832;2.950;2022-08-30T22:41:20;20.50;99.90
23495;DHT22;26107;50.832;2.950;2022-08-30T22:56:21;20.40;99.90
23495;DHT22;26107;50.832;2.950;2022-08-30T23:11:22;20.40;99.90
23495;DHT22;26107;50.832;2.950;2022-08-30T23:26:23;20.30;99.90
23495;DHT22;26107;50.832;2.950;2022-08-30T23:41:42;19.90;99.90
23495;DHT22;26107;50.832;2.950;2022-08-30T23:57:01;19.80;99.90
